createdAt,value
2023-06-07T00:00:27.181Z,12.93
2023-06-07T00:02:54.317Z,12.83
2023-06-07T00:05:22.860Z,12.76
2023-06-07T00:07:49.615Z,12.62
2023-06-07T00:10:16.351Z,12.72
2023-06-07T00:12:42.897Z,12.63
2023-06-07T00:15:11.391Z,12.60
2023-06-07T00:17:41.933Z,12.56
2023-06-07T00:20:10.254Z,12.52
2023-06-07T00:22:37.100Z,12.47
2023-06-07T00:25:05.519Z,12.45
2023-06-07T00:27:32.722Z,12.40
2023-06-07T00:29:59.238Z,12.39
2023-06-07T00:32:25.868Z,12.29
2023-06-07T00:34:52.476Z,12.36
2023-06-07T00:37:18.993Z,12.29
2023-06-07T00:39:45.702Z,12.27
2023-06-07T00:42:12.407Z,12.26
2023-06-07T00:44:41.267Z,12.22
2023-06-07T00:47:08.030Z,12.21
2023-06-07T00:49:34.914Z,12.20
2023-06-07T00:52:01.783Z,12.16
2023-06-07T00:54:29.715Z,12.04
2023-06-07T00:56:58.690Z,12.13
2023-06-07T00:59:25.461Z,12.16
2023-06-07T01:01:56.866Z,12.09
2023-06-07T01:04:25.493Z,12.08
2023-06-07T01:06:55.103Z,12.03
2023-06-07T01:09:23.209Z,12.00
2023-06-07T01:11:52.096Z,12.00
2023-06-07T01:14:20.282Z,12.03
2023-06-07T01:16:51.467Z,12.00
2023-06-07T01:19:24.646Z,11.99
2023-06-07T01:22:00.443Z,11.96
2023-06-07T01:24:29.749Z,11.89
2023-06-07T01:26:58.528Z,11.90
2023-06-07T01:29:27.086Z,11.74
2023-06-07T01:31:55.665Z,11.92
2023-06-07T01:34:22.828Z,12.06
2023-06-07T01:36:51.714Z,12.00
2023-06-07T01:39:22.276Z,12.01
2023-06-07T01:41:52.099Z,11.93
2023-06-07T01:44:19.920Z,11.89
2023-06-07T01:46:47.763Z,11.87
2023-06-07T01:49:18.767Z,11.81
2023-06-07T01:51:45.506Z,11.79
2023-06-07T01:54:13.589Z,11.77
2023-06-07T01:57:10.169Z,11.80
2023-06-07T01:59:51.978Z,11.74
2023-06-07T02:02:32.168Z,11.68
2023-06-07T02:05:05.048Z,11.61
2023-06-07T02:07:42.706Z,11.62
2023-06-07T02:10:09.934Z,11.58
2023-06-07T02:12:38.329Z,11.55
2023-06-07T02:15:05.683Z,11.56
2023-06-07T02:17:33.312Z,11.54
2023-06-07T02:20:00.036Z,11.51
2023-06-07T02:22:30.132Z,11.47
2023-06-07T02:24:57.516Z,11.47
2023-06-07T02:27:24.085Z,11.47
2023-06-07T02:29:50.958Z,11.47
2023-06-07T02:32:17.797Z,11.45
2023-06-07T02:34:45.481Z,11.46
2023-06-07T02:37:12.189Z,11.46
2023-06-07T02:39:38.753Z,11.15
2023-06-07T02:42:05.998Z,11.35
2023-06-07T02:44:32.552Z,11.36
2023-06-07T02:46:59.140Z,11.33
2023-06-07T02:49:26.024Z,11.31
2023-06-07T02:51:54.135Z,11.27
2023-06-07T02:54:20.754Z,11.18
2023-06-07T02:56:48.112Z,11.26
2023-06-07T02:59:14.799Z,11.22
2023-06-07T03:01:44.440Z,11.21
2023-06-07T03:04:11.763Z,11.19
2023-06-07T03:06:42.454Z,11.18
2023-06-07T03:09:18.264Z,11.15
2023-06-07T03:11:46.019Z,11.15
2023-06-07T03:14:13.820Z,11.13
2023-06-07T03:16:46.038Z,11.11
2023-06-07T03:19:14.720Z,11.08
2023-06-07T03:21:45.509Z,11.05
2023-06-07T03:24:14.327Z,11.01
2023-06-07T03:26:42.007Z,11.00
2023-06-07T03:29:10.893Z,11.03
2023-06-07T03:31:38.997Z,10.97
2023-06-07T03:34:09.673Z,11.00
2023-06-07T03:36:37.011Z,10.98
2023-06-07T03:39:03.943Z,10.98
2023-06-07T03:41:31.699Z,11.00
2023-06-07T03:44:01.859Z,10.98
2023-06-07T03:46:29.300Z,11.11
2023-06-07T03:48:55.996Z,11.13
2023-06-07T03:51:24.426Z,11.11
2023-06-07T03:53:51.181Z,11.13
2023-06-07T03:56:17.742Z,11.08
2023-06-07T03:58:46.446Z,11.23
2023-06-07T04:01:19.092Z,11.35
2023-06-07T04:03:46.755Z,11.42
2023-06-07T04:06:15.356Z,11.64
2023-06-07T04:08:41.950Z,11.74
2023-06-07T04:11:08.847Z,11.61
2023-06-07T04:13:35.460Z,11.60
2023-06-07T04:16:02.322Z,11.45
2023-06-07T04:18:29.648Z,11.48
2023-06-07T04:20:56.321Z,11.43
2023-06-07T04:23:24.013Z,11.54
2023-06-07T04:25:55.993Z,11.63
2023-06-07T04:28:24.837Z,11.63
2023-06-07T04:30:54.729Z,11.63
2023-06-07T04:33:22.332Z,11.65
2023-06-07T04:35:58.705Z,11.66
2023-06-07T04:38:27.194Z,11.78
2023-06-07T04:41:02.093Z,11.84
2023-06-07T04:43:39.029Z,11.82
2023-06-07T04:46:10.496Z,11.87
2023-06-07T04:48:42.505Z,11.93
2023-06-07T04:51:09.739Z,12.01
2023-06-07T04:53:42.893Z,12.08
2023-06-07T04:56:12.835Z,12.13
2023-06-07T04:58:43.945Z,12.21
2023-06-07T05:01:14.696Z,12.30
2023-06-07T05:03:43.638Z,12.36
2023-06-07T05:06:13.055Z,12.38
2023-06-07T05:08:40.492Z,12.54
2023-06-07T05:11:07.161Z,12.61
2023-06-07T05:13:33.763Z,12.59
2023-06-07T05:16:02.390Z,12.64
2023-06-07T05:18:29.698Z,12.79
2023-06-07T05:20:57.860Z,12.80
2023-06-07T05:23:26.909Z,12.80
2023-06-07T05:25:54.394Z,12.96
2023-06-07T05:28:21.117Z,12.99
2023-06-07T05:30:51.178Z,13.08
2023-06-07T05:33:19.035Z,13.24
2023-06-07T05:35:47.375Z,13.30
2023-06-07T05:38:16.839Z,13.39
2023-06-07T05:40:43.494Z,13.46
2023-06-07T05:43:10.083Z,13.57
2023-06-07T05:45:37.512Z,13.66
2023-06-07T05:48:04.427Z,13.67
2023-06-07T05:50:33.974Z,13.72
2023-06-07T05:53:00.617Z,13.78
2023-06-07T05:55:28.782Z,13.90
2023-06-07T05:57:58.208Z,13.95
2023-06-07T06:00:24.964Z,14.02
2023-06-07T06:02:54.107Z,14.07
2023-06-07T06:05:29.351Z,14.16
2023-06-07T06:07:57.805Z,14.17
2023-06-07T06:10:25.359Z,14.20
2023-06-07T06:12:51.984Z,14.19
2023-06-07T06:15:18.531Z,14.46
2023-06-07T06:17:45.096Z,14.45
2023-06-07T06:20:13.315Z,14.48
2023-06-07T06:22:40.200Z,14.60
2023-06-07T06:25:07.118Z,14.71
2023-06-07T06:27:33.670Z,14.75
2023-06-07T06:30:00.288Z,14.85
2023-06-07T06:32:26.965Z,14.91
2023-06-07T06:34:53.546Z,14.92
2023-06-07T06:37:20.058Z,14.96
2023-06-07T06:39:48.386Z,15.06
2023-06-07T06:42:15.040Z,15.19
2023-06-07T06:45:05.182Z,15.26
2023-06-07T06:47:31.763Z,15.33
2023-06-07T06:50:01.127Z,15.36
2023-06-07T06:52:27.708Z,15.44
2023-06-07T06:54:54.219Z,15.51
2023-06-07T06:57:20.839Z,15.60
2023-06-07T06:59:50.081Z,15.65
2023-06-07T07:02:17.474Z,15.76
2023-06-07T07:04:44.112Z,15.83
2023-06-07T07:07:10.849Z,15.91
2023-06-07T07:09:37.363Z,15.97
2023-06-07T07:12:04.347Z,15.97
2023-06-07T07:14:30.937Z,16.00
2023-06-07T07:17:00.522Z,16.20
2023-06-07T07:19:28.198Z,16.20
2023-06-07T07:21:54.740Z,16.24
2023-06-07T07:24:21.361Z,16.37
2023-06-07T07:26:47.980Z,16.39
2023-06-07T07:29:14.502Z,16.49
2023-06-07T07:31:41.030Z,16.59
2023-06-07T07:34:07.719Z,16.62
2023-06-07T07:36:37.109Z,16.70
2023-06-07T07:39:06.578Z,16.82
2023-06-07T07:41:36.167Z,16.93
2023-06-07T07:44:04.973Z,17.04
2023-06-07T07:46:31.631Z,17.16
2023-06-07T07:48:58.385Z,17.20
2023-06-07T07:51:24.937Z,17.21
2023-06-07T07:53:54.204Z,17.21
2023-06-07T07:56:24.319Z,17.37
2023-06-07T07:58:51.560Z,17.52
2023-06-07T08:01:21.524Z,17.49
2023-06-07T08:03:48.938Z,17.44
2023-06-07T08:06:16.324Z,17.41
2023-06-07T08:08:42.932Z,17.50
2023-06-07T08:11:09.447Z,17.39
2023-06-07T08:13:36.083Z,17.28
2023-06-07T08:16:02.921Z,17.38
2023-06-07T08:18:29.479Z,17.56
2023-06-07T08:20:56.093Z,17.87
2023-06-07T08:23:22.641Z,18.45
2023-06-07T08:25:50.051Z,18.95
2023-06-07T08:28:17.214Z,19.28
2023-06-07T08:30:43.933Z,19.27
2023-06-07T08:33:10.597Z,19.16
2023-06-07T08:35:37.294Z,19.11
2023-06-07T08:38:03.833Z,19.08
2023-06-07T08:40:33.973Z,19.04
2023-06-07T08:43:00.865Z,18.99
2023-06-07T08:45:27.572Z,18.87
2023-06-07T08:47:57.529Z,18.86
2023-06-07T08:50:24.565Z,18.92
2023-06-07T08:52:54.684Z,19.16
2023-06-07T08:55:22.479Z,19.25
2023-06-07T08:57:53.837Z,19.18
2023-06-07T09:00:24.539Z,19.11
2023-06-07T09:02:53.824Z,19.27
2023-06-07T09:05:23.966Z,19.22
2023-06-07T09:07:50.988Z,19.22
2023-06-07T09:10:21.377Z,19.17
2023-06-07T09:12:49.494Z,19.22
2023-06-07T09:15:21.227Z,19.34
2023-06-07T09:18:00.398Z,19.26
2023-06-07T09:20:28.638Z,19.19
2023-06-07T09:23:10.462Z,19.00
2023-06-07T09:25:39.123Z,18.93
2023-06-07T09:28:14.178Z,18.92
2023-06-07T09:30:56.049Z,18.96
2023-06-07T09:33:37.580Z,19.04
2023-06-07T09:36:07.462Z,19.08
2023-06-07T09:38:34.490Z,19.15
2023-06-07T09:41:03.556Z,19.10
2023-06-07T09:43:52.013Z,19.11
2023-06-07T09:46:20.581Z,19.03
2023-06-07T09:48:52.506Z,19.06
2023-06-07T09:51:20.802Z,19.09
2023-06-07T09:54:06.707Z,19.18
2023-06-07T09:56:33.261Z,19.23
2023-06-07T09:59:09.847Z,19.30
2023-06-07T10:01:44.414Z,19.54
2023-06-07T10:04:12.361Z,19.56
2023-06-07T10:06:46.662Z,19.58
2023-06-07T10:09:14.667Z,19.71
2023-06-07T10:11:45.886Z,19.76
2023-06-07T10:14:17.765Z,19.86
2023-06-07T10:16:52.481Z,20.04
2023-06-07T10:19:24.148Z,20.12
2023-06-07T10:21:54.232Z,20.44
2023-06-07T10:24:33.720Z,20.54
2023-06-07T10:27:18.173Z,20.80
2023-06-07T10:29:58.666Z,20.96
2023-06-07T10:32:35.346Z,21.25
2023-06-07T10:35:04.003Z,21.22
2023-06-07T10:37:33.502Z,20.93
2023-06-07T10:40:06.455Z,20.85
2023-06-07T10:42:34.473Z,20.95
2023-06-07T10:45:01.523Z,20.72
2023-06-07T10:47:30.852Z,20.37
2023-06-07T10:49:58.510Z,20.52
2023-06-07T10:52:27.640Z,20.63
2023-06-07T10:54:54.875Z,20.75
2023-06-07T10:57:38.515Z,20.98
2023-06-07T11:00:26.321Z,21.51
2023-06-07T11:03:14.177Z,21.68
2023-06-07T11:05:56.278Z,21.94
2023-06-07T11:08:29.953Z,22.04
2023-06-07T11:11:01.872Z,22.47
2023-06-07T11:14:00.638Z,22.62
2023-06-07T11:16:27.178Z,22.80
2023-06-07T11:18:55.527Z,22.86
2023-06-07T11:21:27.127Z,22.76
2023-06-07T11:24:13.764Z,22.25
2023-06-07T11:26:41.380Z,22.09
2023-06-07T11:29:11.337Z,21.84
2023-06-07T11:31:37.924Z,21.75
2023-06-07T11:34:04.523Z,21.75
2023-06-07T11:36:33.836Z,22.11
2023-06-07T11:39:03.199Z,22.66
2023-06-07T11:41:29.823Z,22.29
2023-06-07T11:43:57.699Z,22.44
2023-06-07T11:46:24.325Z,22.81
2023-06-07T11:48:50.977Z,22.57
2023-06-07T11:51:18.254Z,22.57
2023-06-07T11:53:48.382Z,22.36
2023-06-07T11:56:15.435Z,22.85
2023-06-07T11:58:42.113Z,22.78
2023-06-07T12:01:09.114Z,22.56
2023-06-07T12:03:35.849Z,22.71
2023-06-07T12:06:02.928Z,22.81
2023-06-07T12:08:32.336Z,22.50
2023-06-07T12:10:58.897Z,22.56
2023-06-07T12:13:25.553Z,22.65
2023-06-07T12:15:56.660Z,22.64
2023-06-07T12:18:30.877Z,22.65
2023-06-07T12:21:04.717Z,22.64
2023-06-07T12:23:32.528Z,22.39
2023-06-07T12:26:13.029Z,22.42
2023-06-07T12:28:41.548Z,22.52
2023-06-07T12:31:20.561Z,22.60
2023-06-07T12:34:03.135Z,22.57
2023-06-07T12:36:32.604Z,22.51
2023-06-07T12:39:00.186Z,22.37
2023-06-07T12:41:29.049Z,22.11
2023-06-07T12:43:56.470Z,22.25
2023-06-07T12:46:23.006Z,22.22
2023-06-07T12:48:49.493Z,22.11
2023-06-07T12:51:17.190Z,22.32
2023-06-07T12:53:44.250Z,22.42
2023-06-07T12:56:10.744Z,22.34
2023-06-07T12:58:37.443Z,22.18
2023-06-07T13:01:04.210Z,22.22
2023-06-07T13:03:31.155Z,22.35
2023-06-07T13:05:57.860Z,21.70
2023-06-07T13:08:24.536Z,22.10
2023-06-07T13:10:51.143Z,21.81
2023-06-07T13:13:17.705Z,21.77
2023-06-07T13:15:44.379Z,21.73
2023-06-07T13:18:11.284Z,21.75
2023-06-07T13:20:38.009Z,21.96
2023-06-07T13:23:04.658Z,21.71
2023-06-07T13:25:31.425Z,21.90
2023-06-07T13:27:58.039Z,22.28
2023-06-07T13:30:27.488Z,22.30
2023-06-07T13:32:53.992Z,22.53
2023-06-07T13:35:20.656Z,22.56
2023-06-07T13:37:47.256Z,22.44
2023-06-07T13:40:13.959Z,22.58
2023-06-07T13:42:40.471Z,22.64
2023-06-07T13:45:07.827Z,22.70
2023-06-07T13:47:34.655Z,22.91
2023-06-07T13:50:01.315Z,22.68
2023-06-07T13:52:28.284Z,23.05
2023-06-07T13:54:57.912Z,22.94
2023-06-07T13:57:24.456Z,22.91
2023-06-07T13:59:51.370Z,22.93
2023-06-07T14:02:19.052Z,22.77
2023-06-07T14:04:47.875Z,22.86
2023-06-07T14:07:14.521Z,22.59
2023-06-07T14:09:41.061Z,22.89
2023-06-07T14:12:09.526Z,23.18
2023-06-07T14:14:36.080Z,23.44
2023-06-07T14:17:02.579Z,23.06
2023-06-07T14:19:29.096Z,23.06
2023-06-07T14:21:55.887Z,23.34
2023-06-07T14:24:22.665Z,23.22
2023-06-07T14:26:49.191Z,23.17
2023-06-07T14:29:16.302Z,23.08
2023-06-07T14:31:43.007Z,23.05
2023-06-07T14:34:09.515Z,23.36
2023-06-07T14:36:36.533Z,23.36
2023-06-07T14:39:03.065Z,23.44
2023-06-07T14:41:29.571Z,23.47
2023-06-07T14:43:56.125Z,23.33
2023-06-07T14:46:22.713Z,23.33
2023-06-07T14:48:49.235Z,23.14
2023-06-07T14:51:17.536Z,23.60
2023-06-07T14:53:44.136Z,23.61
2023-06-07T14:56:10.655Z,23.42
2023-06-07T14:58:37.130Z,23.60
2023-06-07T15:01:03.677Z,23.63
2023-06-07T15:03:30.305Z,23.73
2023-06-07T15:05:56.808Z,23.49
2023-06-07T15:08:23.338Z,23.44
2023-06-07T15:13:16.711Z,23.29
2023-06-07T15:15:43.259Z,23.36
2023-06-07T15:18:09.816Z,23.51
2023-06-07T15:20:36.349Z,23.46
2023-06-07T15:23:02.915Z,23.31
2023-06-07T15:25:30.713Z,23.44
2023-06-07T15:27:57.282Z,23.40
2023-06-07T15:30:23.769Z,23.29
2023-06-07T15:32:50.614Z,23.01
2023-06-07T15:35:17.439Z,23.24
2023-06-07T15:37:44.072Z,23.35
2023-06-07T15:40:12.316Z,23.08
2023-06-07T15:42:39.272Z,23.31
2023-06-07T15:45:06.674Z,23.39
2023-06-07T15:47:33.208Z,23.27
2023-06-07T15:50:00.868Z,23.29
2023-06-07T15:52:27.375Z,23.19
2023-06-07T15:54:53.886Z,23.23
2023-06-07T15:57:20.639Z,23.29
2023-06-07T15:59:47.160Z,23.31
2023-06-07T16:02:15.738Z,23.34
2023-06-07T16:04:42.718Z,23.26
2023-06-07T16:07:10.765Z,22.98
2023-06-07T16:09:37.254Z,23.17
2023-06-07T16:12:04.126Z,23.31
2023-06-07T16:14:30.773Z,22.79
2023-06-07T16:16:57.353Z,23.22
2023-06-07T16:19:23.910Z,23.09
2023-06-07T16:21:50.433Z,23.10
2023-06-07T16:24:17.263Z,22.79
2023-06-07T16:26:43.854Z,23.17
2023-06-07T16:29:10.973Z,22.99
2023-06-07T16:31:38.004Z,23.02
2023-06-07T16:34:04.848Z,23.18
2023-06-07T16:36:31.645Z,23.11
2023-06-07T16:38:58.587Z,23.05
2023-06-07T16:41:26.913Z,23.01
2023-06-07T16:43:53.628Z,22.96
2023-06-07T16:46:20.372Z,22.95
2023-06-07T16:48:47.100Z,22.92
2023-06-07T16:51:13.722Z,22.92
2023-06-07T16:53:40.524Z,22.86
2023-06-07T16:56:07.180Z,22.85
2023-06-07T16:58:33.962Z,22.89
2023-06-07T17:01:00.938Z,22.81
2023-06-07T17:03:27.743Z,22.79
2023-06-07T17:05:54.552Z,22.76
2023-06-07T17:08:21.148Z,22.72
2023-06-07T17:10:49.101Z,22.64
2023-06-07T17:13:16.642Z,22.60
2023-06-07T17:15:43.307Z,22.53
2023-06-07T17:18:12.522Z,22.46
2023-06-07T17:20:39.416Z,22.42
2023-06-07T17:23:06.088Z,22.44
2023-06-07T17:25:32.926Z,22.34
2023-06-07T17:27:59.565Z,22.27
2023-06-07T17:30:26.240Z,22.23
2023-06-07T17:32:52.857Z,22.19
2023-06-07T17:35:19.593Z,22.16
2023-06-07T17:37:46.166Z,22.09
2023-06-07T17:40:13.120Z,22.02
2023-06-07T17:42:39.797Z,21.98
2023-06-07T17:45:06.967Z,21.87
2023-06-07T17:47:47.536Z,21.89
2023-06-07T17:50:14.332Z,21.86
2023-06-07T17:52:40.880Z,21.79
2023-06-07T17:55:08.235Z,21.76
2023-06-07T17:57:34.805Z,21.69
2023-06-07T18:00:01.441Z,21.59
2023-06-07T18:02:28.084Z,21.57
2023-06-07T18:04:54.653Z,21.52
2023-06-07T18:07:21.407Z,21.44
2023-06-07T18:09:48.052Z,21.39
2023-06-07T18:12:15.435Z,21.32
2023-06-07T18:14:41.985Z,21.30
2023-06-07T18:17:09.617Z,21.24
2023-06-07T18:19:36.819Z,21.17
2023-06-07T18:22:04.243Z,21.15
2023-06-07T18:24:31.520Z,21.07
2023-06-07T18:26:58.387Z,21.02
2023-06-07T18:29:25.218Z,20.95
2023-06-07T18:31:52.210Z,20.88
2023-06-07T18:34:20.673Z,20.81
2023-06-07T18:36:47.617Z,20.72
2023-06-07T18:39:14.315Z,20.66
2023-06-07T18:41:41.286Z,20.60
2023-06-07T18:44:07.845Z,20.50
2023-06-07T18:46:34.814Z,20.38
2023-06-07T18:49:01.492Z,20.33
2023-06-07T18:51:28.097Z,20.24
2023-06-07T18:53:54.843Z,20.13
2023-06-07T18:56:22.769Z,20.06
2023-06-07T18:58:49.301Z,19.95
2023-06-07T19:01:16.333Z,19.85
2023-06-07T19:03:43.680Z,19.76
2023-06-07T19:06:13.348Z,19.69
2023-06-07T19:08:42.862Z,19.52
2023-06-07T19:11:12.474Z,19.39
2023-06-07T19:13:39.514Z,19.29
2023-06-07T19:16:06.110Z,19.24
2023-06-07T19:18:32.629Z,19.21
2023-06-07T19:20:59.193Z,19.17
2023-06-07T19:23:26.437Z,19.08
2023-06-07T19:25:53.025Z,18.94
2023-06-07T19:28:19.598Z,18.82
2023-06-07T19:30:46.227Z,18.70
2023-06-07T19:33:12.936Z,18.65
2023-06-07T19:35:39.507Z,18.59
2023-06-07T19:38:06.249Z,18.47
2023-06-07T19:40:32.763Z,18.40
2023-06-07T19:42:59.320Z,18.24
2023-06-07T19:45:26.782Z,18.24
2023-06-07T19:47:53.386Z,18.19
2023-06-07T19:50:19.943Z,18.09
2023-06-07T19:52:46.647Z,18.04
2023-06-07T19:55:14.885Z,17.91
2023-06-07T19:57:41.485Z,17.85
2023-06-07T20:00:09.411Z,17.67
2023-06-07T20:02:42.607Z,17.62
2023-06-07T20:05:09.585Z,17.59
2023-06-07T20:07:36.309Z,17.51
2023-06-07T20:10:05.864Z,17.49
2023-06-07T20:12:33.956Z,17.44
2023-06-07T20:15:00.675Z,17.37
2023-06-07T20:17:27.699Z,17.32
2023-06-07T20:19:57.495Z,17.28
2023-06-07T20:22:31.657Z,17.13
2023-06-07T20:24:58.374Z,17.04
2023-06-07T20:27:24.922Z,17.01
2023-06-07T20:29:52.533Z,17.04
2023-06-07T20:32:19.375Z,17.03
2023-06-07T20:34:46.536Z,16.99
2023-06-07T20:37:13.421Z,16.94
2023-06-07T20:39:39.945Z,16.93
2023-06-07T20:42:07.398Z,16.90
2023-06-07T20:44:44.015Z,16.82
2023-06-07T20:47:18.367Z,16.64
2023-06-07T20:49:44.951Z,16.58
2023-06-07T20:52:11.516Z,16.47
2023-06-07T20:54:39.857Z,16.43
2023-06-07T20:57:07.119Z,16.38
2023-06-07T20:59:34.667Z,16.36
2023-06-07T21:02:01.465Z,16.21
2023-06-07T21:04:28.827Z,16.14
2023-06-07T21:06:55.604Z,16.10
2023-06-07T21:09:22.190Z,16.07
2023-06-07T21:11:48.761Z,16.09
2023-06-07T21:14:17.189Z,16.03
2023-06-07T21:16:47.500Z,16.03
2023-06-07T21:19:14.723Z,15.96
2023-06-07T21:21:41.398Z,15.86
2023-06-07T21:24:08.195Z,15.85
2023-06-07T21:26:34.904Z,15.82
2023-06-07T21:29:01.649Z,15.72
2023-06-07T21:31:28.334Z,15.74
2023-06-07T21:34:02.390Z,15.72
2023-06-07T21:36:29.529Z,15.66
2023-06-07T21:38:57.393Z,15.60
2023-06-07T21:41:25.092Z,15.56
2023-06-07T21:43:51.696Z,15.57
2023-06-07T21:46:18.992Z,15.53
2023-06-07T21:48:46.369Z,15.53
2023-06-07T21:51:13.888Z,15.47
2023-06-07T21:53:40.476Z,15.42
2023-06-07T21:56:07.222Z,15.38
2023-06-07T21:58:33.827Z,15.36
2023-06-07T22:01:00.564Z,15.31
2023-06-07T22:03:27.140Z,15.29
2023-06-07T22:05:53.726Z,15.24
2023-06-07T22:08:20.395Z,15.17
2023-06-07T22:10:47.751Z,15.17
2023-06-07T22:13:17.689Z,15.15
2023-06-07T22:15:45.512Z,15.18
2023-06-07T22:18:12.658Z,15.19
2023-06-07T22:20:41.360Z,15.18
2023-06-07T22:23:08.868Z,15.01
2023-06-07T22:25:40.902Z,14.97
2023-06-07T22:28:14.108Z,14.92
2023-06-07T22:30:41.725Z,14.85
2023-06-07T22:33:09.887Z,14.89
2023-06-07T22:35:37.216Z,14.73
2023-06-07T22:38:12.604Z,14.74
2023-06-07T22:40:40.441Z,14.61
2023-06-07T22:43:06.965Z,14.63
2023-06-07T22:45:35.005Z,14.57
2023-06-07T22:48:03.446Z,14.56
2023-06-07T22:50:35.123Z,14.63
2023-06-07T22:53:03.517Z,14.61
2023-06-07T22:55:30.523Z,14.60
2023-06-07T22:57:57.067Z,14.56
2023-06-07T23:00:23.608Z,14.47
2023-06-07T23:02:50.768Z,14.45
2023-06-07T23:05:18.083Z,14.52
2023-06-07T23:07:44.640Z,14.44
2023-06-07T23:10:12.062Z,14.46
2023-06-07T23:12:40.423Z,14.43
2023-06-07T23:15:08.212Z,14.33
2023-06-07T23:17:34.776Z,14.34
2023-06-07T23:20:01.535Z,14.27
2023-06-07T23:22:28.120Z,14.40
2023-06-07T23:24:54.631Z,14.27
2023-06-07T23:27:21.237Z,14.20
2023-06-07T23:29:47.738Z,14.13
2023-06-07T23:32:14.407Z,14.15
2023-06-07T23:34:41.044Z,14.16
2023-06-07T23:37:07.593Z,14.12
2023-06-07T23:39:34.139Z,14.13
2023-06-07T23:42:00.631Z,13.97
2023-06-07T23:44:27.994Z,13.92
2023-06-07T23:46:55.782Z,13.98
2023-06-07T23:49:35.154Z,14.04
2023-06-07T23:52:03.113Z,13.92
2023-06-07T23:54:29.830Z,13.79
2023-06-07T23:56:57.262Z,13.75
2023-06-07T23:59:26.493Z,13.72
